createdAt,value
2017-08-04T00:00:29.188Z,0
2017-08-04T00:01:09.641Z,0
2017-08-04T00:01:50.101Z,0
2017-08-04T00:02:30.564Z,0
2017-08-04T00:03:11.022Z,0
2017-08-04T00:03:51.479Z,0
2017-08-04T00:04:31.937Z,0
2017-08-04T00:05:12.390Z,0
2017-08-04T00:05:52.846Z,0
2017-08-04T00:06:33.321Z,0
2017-08-04T00:07:13.757Z,0
2017-08-04T00:07:54.214Z,0
2017-08-04T00:08:34.668Z,0
2017-08-04T00:09:15.139Z,0
2017-08-04T00:09:55.600Z,0
2017-08-04T00:10:36.058Z,0
2017-08-04T00:11:16.503Z,0
2017-08-04T00:11:56.963Z,0
2017-08-04T00:12:37.422Z,0
2017-08-04T00:13:17.881Z,0
2017-08-04T00:13:58.337Z,0
2017-08-04T00:14:38.795Z,0
2017-08-04T00:15:19.252Z,0
2017-08-04T00:15:59.706Z,0
2017-08-04T00:16:40.161Z,0
2017-08-04T00:17:20.626Z,0
2017-08-04T00:18:01.083Z,0
2017-08-04T00:18:41.526Z,0
2017-08-04T00:19:21.977Z,0
2017-08-04T00:20:02.430Z,0
2017-08-04T00:20:42.895Z,0
2017-08-04T00:21:23.356Z,0
2017-08-04T00:22:03.807Z,0
2017-08-04T00:22:44.259Z,0
2017-08-04T00:23:24.716Z,0
2017-08-04T00:24:05.166Z,0
2017-08-04T00:24:45.626Z,0
2017-08-04T00:25:26.080Z,0
2017-08-04T00:26:06.542Z,0
2017-08-04T00:26:47.017Z,0
2017-08-04T00:27:27.448Z,0
2017-08-04T00:28:07.907Z,0
2017-08-04T00:28:48.354Z,0
2017-08-04T00:29:28.809Z,0
2017-08-04T00:30:09.260Z,0
2017-08-04T00:30:49.717Z,0
2017-08-04T00:31:30.174Z,0
2017-08-04T00:32:10.633Z,0
2017-08-04T00:32:51.084Z,0
2017-08-04T00:33:31.541Z,0
2017-08-04T00:34:12.018Z,0
2017-08-04T00:34:52.473Z,0
2017-08-04T00:35:32.947Z,0
2017-08-04T00:36:13.388Z,0
2017-08-04T00:36:53.841Z,0
2017-08-04T00:37:34.288Z,0
2017-08-04T00:38:14.745Z,0
2017-08-04T00:38:55.200Z,0
2017-08-04T00:39:35.667Z,0
2017-08-04T00:40:16.123Z,0
2017-08-04T00:40:56.569Z,0
2017-08-04T00:41:37.030Z,0
2017-08-04T00:42:17.499Z,0
2017-08-04T00:42:57.941Z,0
2017-08-04T00:43:38.399Z,0
2017-08-04T00:44:18.849Z,0
2017-08-04T00:44:59.311Z,0
2017-08-04T00:45:39.776Z,0
2017-08-04T00:46:20.235Z,0
2017-08-04T00:47:00.696Z,0
2017-08-04T00:47:41.155Z,0
2017-08-04T00:48:21.601Z,0
2017-08-04T00:49:02.056Z,0
2017-08-04T00:49:42.510Z,0
2017-08-04T00:50:22.968Z,0
2017-08-04T00:51:03.422Z,0
2017-08-04T00:51:43.881Z,0
2017-08-04T00:52:24.332Z,0
2017-08-04T00:53:04.794Z,0
2017-08-04T00:53:45.255Z,0
2017-08-04T00:54:25.717Z,0
2017-08-04T00:55:06.168Z,0
2017-08-04T00:55:46.628Z,0
2017-08-04T00:56:27.084Z,0
2017-08-04T00:57:07.539Z,0
2017-08-04T00:57:47.996Z,0
2017-08-04T00:58:28.478Z,0
2017-08-04T00:59:08.915Z,0
2017-08-04T00:59:49.374Z,0
2017-08-04T01:00:29.843Z,0
2017-08-04T01:01:10.282Z,0
2017-08-04T01:01:50.733Z,0
2017-08-04T01:02:31.191Z,0
2017-08-04T01:03:11.642Z,0
2017-08-04T01:03:52.088Z,0
2017-08-04T01:04:32.566Z,0
2017-08-04T01:05:13.020Z,0
2017-08-04T01:05:53.483Z,0
2017-08-04T01:06:33.944Z,0
2017-08-04T01:07:14.398Z,0
2017-08-04T01:07:54.861Z,0
2017-08-04T01:08:35.307Z,0
2017-08-04T01:09:15.764Z,0
2017-08-04T01:09:56.209Z,0
2017-08-04T01:10:36.663Z,0
2017-08-04T01:11:17.126Z,0
2017-08-04T01:11:57.577Z,0
2017-08-04T01:12:38.034Z,0
2017-08-04T01:13:18.489Z,0
2017-08-04T01:13:58.954Z,0
2017-08-04T01:14:39.435Z,0
2017-08-04T01:15:19.857Z,0
2017-08-04T01:16:00.314Z,0
2017-08-04T01:16:40.774Z,0
2017-08-04T01:17:21.232Z,0
2017-08-04T01:18:01.677Z,0
2017-08-04T01:18:42.134Z,0
2017-08-04T01:19:22.590Z,0
2017-08-04T01:20:03.052Z,0
2017-08-04T01:20:43.515Z,0
2017-08-04T01:21:23.970Z,0
2017-08-04T01:22:04.429Z,0
2017-08-04T01:22:44.887Z,0
2017-08-04T01:23:25.343Z,0
2017-08-04T01:24:05.796Z,0
2017-08-04T01:24:46.258Z,0
2017-08-04T01:25:26.716Z,0
2017-08-04T01:26:07.171Z,0
2017-08-04T01:26:47.625Z,0
2017-08-04T01:27:28.081Z,0
2017-08-04T01:28:08.528Z,0
2017-08-04T01:28:48.983Z,0
2017-08-04T01:29:29.441Z,0
2017-08-04T01:30:09.898Z,0
2017-08-04T01:30:50.372Z,0
2017-08-04T01:31:30.830Z,0
2017-08-04T01:32:11.283Z,0
2017-08-04T01:32:51.735Z,0
2017-08-04T01:33:32.197Z,0
2017-08-04T01:34:12.647Z,0
2017-08-04T01:34:53.100Z,0
2017-08-04T01:35:33.555Z,0
2017-08-04T01:36:14.006Z,0
2017-08-04T01:36:54.460Z,0
2017-08-04T01:37:34.914Z,0
2017-08-04T01:38:15.370Z,0
2017-08-04T01:38:55.826Z,0
2017-08-04T01:39:36.280Z,0
2017-08-04T01:40:16.802Z,0
2017-08-04T01:40:57.262Z,0
2017-08-04T01:41:37.717Z,0
2017-08-04T01:42:18.173Z,0
2017-08-04T01:42:58.638Z,0
2017-08-04T01:43:39.097Z,0
2017-08-04T01:44:19.554Z,0
2017-08-04T01:45:00.015Z,0
2017-08-04T01:45:40.472Z,0
2017-08-04T01:46:20.928Z,0
2017-08-04T01:47:01.386Z,0
2017-08-04T01:47:41.849Z,0
2017-08-04T01:48:22.304Z,0
2017-08-04T01:49:02.756Z,0
2017-08-04T01:49:43.215Z,0
2017-08-04T01:50:23.668Z,0
2017-08-04T01:51:05.934Z,0
2017-08-04T01:51:46.402Z,0
2017-08-04T01:52:26.863Z,0
2017-08-04T01:53:07.314Z,0
2017-08-04T01:53:47.761Z,0
2017-08-04T01:54:28.211Z,0
2017-08-04T01:55:08.670Z,0
2017-08-04T01:55:49.111Z,0
2017-08-04T01:56:29.573Z,0
2017-08-04T01:57:10.039Z,0
2017-08-04T01:57:50.501Z,0
2017-08-04T01:58:30.934Z,0
2017-08-04T01:59:11.390Z,0
2017-08-04T01:59:51.855Z,0
2017-08-04T02:00:32.308Z,0
2017-08-04T02:01:12.760Z,0
2017-08-04T02:01:53.221Z,0
2017-08-04T02:02:33.682Z,0
2017-08-04T02:03:14.139Z,0
2017-08-04T02:03:54.596Z,0
2017-08-04T02:04:35.053Z,0
2017-08-04T02:05:15.518Z,0
2017-08-04T02:05:55.969Z,0
2017-08-04T02:06:36.431Z,0
2017-08-04T02:07:16.902Z,0
2017-08-04T02:07:57.348Z,0
2017-08-04T02:08:37.791Z,0
2017-08-04T02:09:18.253Z,0
2017-08-04T02:09:58.714Z,0
2017-08-04T02:10:39.169Z,0
2017-08-04T02:11:19.629Z,0
2017-08-04T02:12:00.090Z,0
2017-08-04T02:12:40.546Z,0
2017-08-04T02:13:21.008Z,0
2017-08-04T02:14:01.461Z,0
2017-08-04T02:14:41.917Z,0
2017-08-04T02:15:22.377Z,0
2017-08-04T02:16:02.835Z,0
2017-08-04T02:16:43.290Z,0
2017-08-04T02:17:23.755Z,0
2017-08-04T02:18:04.218Z,0
2017-08-04T02:18:44.667Z,0
2017-08-04T02:19:25.130Z,0
2017-08-04T02:20:05.586Z,0
2017-08-04T02:20:46.041Z,0
2017-08-04T02:21:26.496Z,0
2017-08-04T02:22:06.953Z,0
2017-08-04T02:22:47.405Z,0
2017-08-04T02:23:27.863Z,0
2017-08-04T02:24:08.318Z,0
2017-08-04T02:24:48.777Z,0
2017-08-04T02:25:29.231Z,0
2017-08-04T02:26:09.695Z,0
2017-08-04T02:26:50.145Z,0
2017-08-04T02:27:30.603Z,0
2017-08-04T02:28:11.071Z,0
2017-08-04T02:28:51.525Z,0
2017-08-04T02:29:31.984Z,0
2017-08-04T02:30:12.448Z,0
2017-08-04T02:30:52.892Z,0
2017-08-04T02:31:33.345Z,0
2017-08-04T02:32:13.799Z,0
2017-08-04T02:32:54.262Z,0
2017-08-04T02:33:34.711Z,0
2017-08-04T02:34:15.164Z,0
2017-08-04T02:34:55.632Z,0
2017-08-04T02:35:36.087Z,0
2017-08-04T02:36:16.547Z,0
2017-08-04T02:36:57.006Z,0
2017-08-04T02:37:37.464Z,0
2017-08-04T02:38:17.920Z,0
2017-08-04T02:38:58.369Z,0
2017-08-04T02:39:38.827Z,0
2017-08-04T02:40:19.281Z,0
2017-08-04T02:40:59.744Z,0
2017-08-04T02:41:40.203Z,0
2017-08-04T02:42:20.666Z,0
2017-08-04T02:43:01.120Z,0
2017-08-04T02:43:41.574Z,0
2017-08-04T02:44:22.066Z,0
2017-08-04T02:45:02.528Z,0
2017-08-04T02:45:42.982Z,0
2017-08-04T02:46:23.446Z,0
2017-08-04T02:47:03.905Z,0
2017-08-04T02:47:44.362Z,0
2017-08-04T02:48:24.823Z,0
2017-08-04T02:49:05.270Z,0
2017-08-04T02:49:45.715Z,0
2017-08-04T02:50:26.187Z,0
2017-08-04T02:51:06.635Z,0
2017-08-04T02:51:47.067Z,0
2017-08-04T02:52:27.531Z,0
2017-08-04T02:53:07.968Z,0
2017-08-04T02:55:25.846Z,0
2017-08-04T02:56:06.359Z,0
2017-08-04T02:56:46.815Z,0
2017-08-04T02:57:27.260Z,0
2017-08-04T02:58:07.716Z,0
2017-08-04T02:58:48.165Z,0
2017-08-04T02:59:28.620Z,0
2017-08-04T03:00:09.078Z,0
2017-08-04T03:00:49.533Z,0
2017-08-04T03:01:29.982Z,0
2017-08-04T03:02:10.429Z,0
2017-08-04T03:02:50.880Z,0
2017-08-04T03:03:31.326Z,0
2017-08-04T03:04:11.778Z,0
2017-08-04T03:04:52.220Z,0
2017-08-04T03:05:32.674Z,0
2017-08-04T03:06:13.122Z,0
2017-08-04T03:06:53.574Z,0
2017-08-04T03:07:34.033Z,0
2017-08-04T03:08:14.485Z,0
2017-08-04T03:08:54.935Z,0
2017-08-04T03:09:35.388Z,0
2017-08-04T03:10:15.850Z,0
2017-08-04T03:10:56.309Z,0
2017-08-04T03:11:36.757Z,0
2017-08-04T03:12:17.210Z,0
2017-08-04T03:12:57.672Z,0
2017-08-04T03:13:38.125Z,0
2017-08-04T03:14:18.590Z,0
2017-08-04T03:14:59.040Z,0
2017-08-04T03:15:39.494Z,0
2017-08-04T03:16:19.944Z,0
2017-08-04T03:17:00.415Z,0
2017-08-04T03:17:40.866Z,0
2017-08-04T03:18:21.324Z,0
2017-08-04T03:19:01.840Z,0
2017-08-04T03:19:42.290Z,0
2017-08-04T03:20:22.734Z,0
2017-08-04T03:21:03.190Z,0
2017-08-04T03:21:43.646Z,0
2017-08-04T03:22:24.104Z,0
2017-08-04T03:23:04.563Z,0
2017-08-04T03:23:45.021Z,0
2017-08-04T03:24:25.483Z,0
2017-08-04T03:25:05.920Z,0
2017-08-04T03:25:46.383Z,0
2017-08-04T03:26:26.837Z,0
2017-08-04T03:27:07.291Z,0
2017-08-04T03:27:47.750Z,0
2017-08-04T03:28:28.206Z,0
2017-08-04T03:29:08.657Z,0
2017-08-04T03:29:49.108Z,0
2017-08-04T03:30:29.564Z,0
2017-08-04T03:31:10.017Z,0
2017-08-04T03:31:50.481Z,0
2017-08-04T03:32:30.937Z,0
2017-08-04T03:33:11.399Z,0
2017-08-04T03:33:51.848Z,0
2017-08-04T03:34:32.304Z,0
2017-08-04T03:35:12.761Z,0
2017-08-04T03:35:53.209Z,0
2017-08-04T03:36:33.656Z,0
2017-08-04T03:37:14.112Z,0
2017-08-04T03:37:54.567Z,0
2017-08-04T03:38:35.023Z,0
2017-08-04T03:39:15.465Z,0
2017-08-04T03:39:55.920Z,0
2017-08-04T03:40:36.377Z,0
2017-08-04T03:41:16.838Z,0
2017-08-04T03:41:57.291Z,0
2017-08-04T03:42:37.758Z,0
2017-08-04T03:43:18.236Z,0
2017-08-04T03:43:58.725Z,0
2017-08-04T03:44:39.189Z,0
2017-08-04T03:45:19.643Z,0
2017-08-04T03:46:00.104Z,0
2017-08-04T03:46:40.559Z,0
2017-08-04T03:47:21.017Z,0
2017-08-04T03:48:01.548Z,0
2017-08-04T03:48:41.974Z,4
2017-08-04T03:49:22.430Z,4
2017-08-04T03:50:02.884Z,8
2017-08-04T03:50:43.341Z,4
2017-08-04T03:51:23.801Z,4
2017-08-04T03:52:04.249Z,8
2017-08-04T03:52:44.708Z,4
2017-08-04T03:53:25.221Z,4
2017-08-04T03:54:05.698Z,4
2017-08-04T03:54:46.145Z,4
2017-08-04T03:55:26.599Z,4
2017-08-04T03:56:07.047Z,4
2017-08-04T03:56:47.543Z,8
2017-08-04T03:57:28.001Z,8
2017-08-04T03:58:08.459Z,8
2017-08-04T03:58:48.914Z,4
2017-08-04T03:59:29.380Z,4
2017-08-04T04:00:09.836Z,8
2017-08-04T04:00:50.299Z,8
2017-08-04T04:01:30.754Z,8
2017-08-04T04:02:11.209Z,12
2017-08-04T04:02:51.667Z,8
2017-08-04T04:03:32.124Z,8
2017-08-04T04:04:12.578Z,8
2017-08-04T04:04:53.030Z,8
2017-08-04T04:05:33.492Z,12
2017-08-04T04:06:13.953Z,12
2017-08-04T04:06:54.403Z,12
2017-08-04T04:07:34.875Z,12
2017-08-04T04:08:15.315Z,8
2017-08-04T04:08:55.774Z,8
2017-08-04T04:09:36.227Z,8
2017-08-04T04:10:16.679Z,8
2017-08-04T04:10:57.146Z,12
2017-08-04T04:11:37.593Z,12
2017-08-04T04:12:18.049Z,12
2017-08-04T04:12:58.505Z,12
2017-08-04T04:13:38.956Z,12
2017-08-04T04:14:19.409Z,16
2017-08-04T04:14:59.877Z,16
2017-08-04T04:15:40.367Z,16
2017-08-04T04:16:20.832Z,16
2017-08-04T04:17:01.286Z,16
2017-08-04T04:17:41.724Z,16
2017-08-04T04:18:22.174Z,16
2017-08-04T04:19:02.632Z,20
2017-08-04T04:19:43.082Z,20
2017-08-04T04:20:23.543Z,20
2017-08-04T04:21:03.981Z,20
2017-08-04T04:21:44.434Z,20
2017-08-04T04:22:24.886Z,24
2017-08-04T04:23:05.341Z,24
2017-08-04T04:23:45.786Z,20
2017-08-04T04:24:26.244Z,24
2017-08-04T04:25:06.741Z,24
2017-08-04T04:25:47.165Z,24
2017-08-04T04:26:27.617Z,24
2017-08-04T04:27:08.073Z,24
2017-08-04T04:27:48.531Z,24
2017-08-04T04:28:28.988Z,24
2017-08-04T04:29:09.441Z,28
2017-08-04T04:29:49.892Z,28
2017-08-04T04:30:30.356Z,24
2017-08-04T04:31:10.803Z,28
2017-08-04T04:31:51.257Z,28
2017-08-04T04:32:31.722Z,32
2017-08-04T04:33:12.173Z,32
2017-08-04T04:33:52.636Z,32
2017-08-04T04:34:33.099Z,36
2017-08-04T04:35:13.554Z,36
2017-08-04T04:35:53.997Z,36
2017-08-04T04:36:34.453Z,32
2017-08-04T04:37:14.904Z,36
2017-08-04T04:37:55.373Z,36
2017-08-04T04:38:35.833Z,40
2017-08-04T04:39:16.285Z,40
2017-08-04T04:39:56.736Z,40
2017-08-04T04:40:37.185Z,44
2017-08-04T04:41:17.646Z,48
2017-08-04T04:41:58.087Z,48
2017-08-04T04:42:38.549Z,48
2017-08-04T04:43:19.005Z,48
2017-08-04T04:43:59.460Z,52
2017-08-04T04:44:39.916Z,52
2017-08-04T04:45:20.388Z,52
2017-08-04T04:46:00.840Z,60
2017-08-04T04:46:41.289Z,60
2017-08-04T04:47:21.751Z,64
2017-08-04T04:48:02.201Z,64
2017-08-04T04:48:42.660Z,60
2017-08-04T04:49:23.109Z,64
2017-08-04T04:50:03.557Z,64
2017-08-04T04:50:44.011Z,68
2017-08-04T04:51:24.479Z,68
2017-08-04T04:52:04.925Z,68
2017-08-04T04:52:45.373Z,68
2017-08-04T04:53:25.822Z,72
2017-08-04T04:54:06.281Z,68
2017-08-04T04:54:46.732Z,68
2017-08-04T04:55:27.190Z,68
2017-08-04T04:56:07.649Z,68
2017-08-04T04:56:48.106Z,72
2017-08-04T04:57:28.559Z,76
2017-08-04T04:58:09.020Z,72
2017-08-04T04:58:49.485Z,76
2017-08-04T04:59:29.936Z,80
2017-08-04T05:00:10.390Z,84
2017-08-04T05:00:50.848Z,84
2017-08-04T05:01:31.302Z,88
2017-08-04T05:02:11.758Z,96
2017-08-04T05:02:52.215Z,100
2017-08-04T05:03:32.670Z,108
2017-08-04T05:04:13.169Z,108
2017-08-04T05:04:53.597Z,116
2017-08-04T05:05:34.076Z,120
2017-08-04T05:06:14.518Z,124
2017-08-04T05:06:54.971Z,124
2017-08-04T05:07:35.414Z,128
2017-08-04T05:08:15.862Z,128
2017-08-04T05:08:56.316Z,132
2017-08-04T05:09:36.762Z,140
2017-08-04T05:10:17.216Z,144
2017-08-04T05:10:57.678Z,148
2017-08-04T05:11:38.109Z,148
2017-08-04T05:12:18.560Z,152
2017-08-04T05:12:59.000Z,152
2017-08-04T05:13:39.464Z,156
2017-08-04T05:14:19.908Z,156
2017-08-04T05:15:00.354Z,160
2017-08-04T05:15:40.801Z,156
2017-08-04T05:16:21.252Z,152
2017-08-04T05:17:01.710Z,152
2017-08-04T05:17:42.180Z,148
2017-08-04T05:18:22.637Z,148
2017-08-04T05:19:03.095Z,144
2017-08-04T05:19:43.554Z,144
2017-08-04T05:20:24.007Z,148
2017-08-04T05:21:04.464Z,144
2017-08-04T05:21:44.919Z,140
2017-08-04T05:22:25.368Z,136
2017-08-04T05:23:05.832Z,136
2017-08-04T05:23:46.282Z,136
2017-08-04T05:24:26.738Z,140
2017-08-04T05:25:07.195Z,152
2017-08-04T05:25:47.641Z,164
2017-08-04T05:26:28.086Z,172
2017-08-04T05:27:08.544Z,188
2017-08-04T05:27:49.001Z,200
2017-08-04T05:28:29.449Z,228
2017-08-04T05:29:09.906Z,244
2017-08-04T05:29:50.364Z,268
2017-08-04T05:30:30.831Z,284
2017-08-04T05:31:11.280Z,304
2017-08-04T05:31:51.732Z,320
2017-08-04T05:32:32.192Z,324
2017-08-04T05:33:12.643Z,324
2017-08-04T05:33:53.105Z,324
2017-08-04T05:34:33.554Z,316
2017-08-04T05:35:14.007Z,300
2017-08-04T05:35:54.456Z,312
2017-08-04T05:36:34.906Z,296
2017-08-04T05:37:15.347Z,304
2017-08-04T05:37:55.798Z,312
2017-08-04T05:38:36.235Z,324
2017-08-04T05:39:16.689Z,336
2017-08-04T05:39:57.142Z,348
2017-08-04T05:40:37.596Z,352
2017-08-04T05:41:18.050Z,348
2017-08-04T05:41:58.508Z,344
2017-08-04T05:42:38.970Z,332
2017-08-04T05:43:19.426Z,324
2017-08-04T05:43:59.897Z,320
2017-08-04T05:44:40.351Z,316
2017-08-04T05:45:20.804Z,308
2017-08-04T05:46:01.267Z,308
2017-08-04T05:46:41.839Z,304
2017-08-04T05:47:22.212Z,296
2017-08-04T05:48:02.666Z,296
2017-08-04T05:48:43.126Z,296
2017-08-04T05:49:23.588Z,296
2017-08-04T05:50:04.061Z,292
2017-08-04T05:50:44.519Z,284
2017-08-04T05:51:24.967Z,284
2017-08-04T05:52:05.447Z,296
2017-08-04T05:52:45.885Z,312
2017-08-04T05:53:26.339Z,324
2017-08-04T05:54:06.796Z,336
2017-08-04T05:54:47.246Z,348
2017-08-04T05:55:27.699Z,360
2017-08-04T05:56:08.154Z,368
2017-08-04T05:56:48.616Z,360
2017-08-04T05:57:29.072Z,336
2017-08-04T05:58:09.532Z,312
2017-08-04T05:58:49.986Z,292
2017-08-04T05:59:30.433Z,280
2017-08-04T06:00:10.888Z,276
2017-08-04T06:00:51.333Z,264
2017-08-04T06:01:31.798Z,256
2017-08-04T06:02:12.243Z,252
2017-08-04T06:02:52.699Z,248
2017-08-04T06:03:33.163Z,236
2017-08-04T06:04:13.611Z,220
2017-08-04T06:04:54.073Z,208
2017-08-04T06:05:34.530Z,204
2017-08-04T06:06:14.980Z,204
2017-08-04T06:06:55.434Z,212
2017-08-04T06:07:35.892Z,220
2017-08-04T06:08:16.351Z,232
2017-08-04T06:08:56.814Z,232
2017-08-04T06:09:37.278Z,236
2017-08-04T06:10:17.723Z,244
2017-08-04T06:10:58.176Z,260
2017-08-04T06:11:38.624Z,272
2017-08-04T06:12:19.087Z,284
2017-08-04T06:12:59.545Z,304
2017-08-04T06:13:39.998Z,320
2017-08-04T06:14:20.458Z,336
2017-08-04T06:15:00.919Z,356
2017-08-04T06:15:41.364Z,376
2017-08-04T06:16:21.823Z,392
2017-08-04T06:17:02.281Z,408
2017-08-04T06:17:42.740Z,416
2017-08-04T06:18:23.193Z,416
2017-08-04T06:19:03.648Z,412
2017-08-04T06:19:44.105Z,404
2017-08-04T06:20:24.561Z,396
2017-08-04T06:21:05.018Z,396
2017-08-04T06:21:45.474Z,404
2017-08-04T06:22:25.935Z,416
2017-08-04T06:23:06.384Z,424
2017-08-04T06:23:46.838Z,440
2017-08-04T06:24:27.292Z,456
2017-08-04T06:25:07.754Z,476
2017-08-04T06:25:48.208Z,492
2017-08-04T06:26:28.666Z,500
2017-08-04T06:27:09.124Z,496
2017-08-04T06:27:49.585Z,504
2017-08-04T06:28:30.034Z,532
2017-08-04T06:29:10.490Z,556
2017-08-04T06:29:50.944Z,568
2017-08-04T06:30:31.396Z,568
2017-08-04T06:31:11.847Z,544
2017-08-04T06:31:52.311Z,516
2017-08-04T06:32:32.768Z,472
2017-08-04T06:33:13.239Z,448
2017-08-04T06:33:53.696Z,436
2017-08-04T06:34:34.153Z,448
2017-08-04T06:35:14.604Z,452
2017-08-04T06:35:55.061Z,448
2017-08-04T06:36:35.517Z,460
2017-08-04T06:37:15.974Z,476
2017-08-04T06:37:56.431Z,500
2017-08-04T06:38:36.888Z,528
2017-08-04T06:39:17.354Z,556
2017-08-04T06:39:57.809Z,564
2017-08-04T06:40:38.266Z,576
2017-08-04T06:41:18.729Z,588
2017-08-04T06:41:59.188Z,612
2017-08-04T06:42:39.646Z,664
2017-08-04T06:43:20.102Z,724
2017-08-04T06:44:00.558Z,916
2017-08-04T06:44:41.018Z,920
2017-08-04T06:45:21.476Z,816
2017-08-04T06:46:01.934Z,868
2017-08-04T06:46:42.393Z,984
2017-08-04T06:47:22.855Z,1164
2017-08-04T06:48:03.311Z,952
2017-08-04T06:48:43.770Z,916
2017-08-04T06:49:24.234Z,1032
2017-08-04T06:50:04.690Z,952
2017-08-04T06:50:45.149Z,828
2017-08-04T06:51:25.599Z,748
2017-08-04T06:52:06.047Z,720
2017-08-04T06:52:46.492Z,732
2017-08-04T06:53:26.948Z,764
2017-08-04T06:54:07.407Z,792
2017-08-04T06:54:47.862Z,808
2017-08-04T06:55:28.321Z,824
2017-08-04T06:56:08.786Z,840
2017-08-04T06:56:49.244Z,864
2017-08-04T06:57:29.691Z,916
2017-08-04T06:58:10.148Z,900
2017-08-04T06:58:50.604Z,884
2017-08-04T06:59:31.063Z,912
2017-08-04T07:00:11.527Z,988
2017-08-04T07:00:51.982Z,1056
2017-08-04T07:01:32.433Z,1204
2017-08-04T07:02:12.880Z,1028
2017-08-04T07:02:53.328Z,1032
2017-08-04T07:03:33.788Z,1248
2017-08-04T07:04:14.253Z,1328
2017-08-04T07:04:54.698Z,1112
2017-08-04T07:05:35.156Z,1060
2017-08-04T07:06:15.614Z,1176
2017-08-04T07:06:56.068Z,960
2017-08-04T07:07:36.514Z,900
2017-08-04T07:08:16.974Z,884
2017-08-04T07:08:57.433Z,908
2017-08-04T07:09:37.886Z,844
2017-08-04T07:10:18.344Z,840
2017-08-04T07:10:58.801Z,848
2017-08-04T07:11:39.258Z,864
2017-08-04T07:12:19.705Z,884
2017-08-04T07:13:00.168Z,880
2017-08-04T07:13:40.622Z,860
2017-08-04T07:14:21.078Z,852
2017-08-04T07:15:01.525Z,840
2017-08-04T07:15:41.984Z,820
2017-08-04T07:16:22.433Z,804
2017-08-04T07:17:02.894Z,772
2017-08-04T07:17:43.352Z,700
2017-08-04T07:18:23.814Z,660
2017-08-04T07:19:04.281Z,648
2017-08-04T07:19:44.732Z,668
2017-08-04T07:20:25.186Z,712
2017-08-04T07:21:05.637Z,764
2017-08-04T07:21:46.106Z,796
2017-08-04T07:22:26.557Z,852
2017-08-04T07:23:07.008Z,908
2017-08-04T07:23:47.466Z,988
2017-08-04T07:24:27.923Z,1068
2017-08-04T07:25:08.390Z,1176
2017-08-04T07:25:48.842Z,1136
2017-08-04T07:26:29.302Z,1200
2017-08-04T07:27:09.765Z,1488
2017-08-04T07:27:50.224Z,1228
2017-08-04T07:28:30.672Z,1392
2017-08-04T07:29:11.131Z,1660
2017-08-04T07:29:51.577Z,1240
2017-08-04T07:30:32.044Z,1300
2017-08-04T07:31:12.506Z,1552
2017-08-04T07:31:52.956Z,1352
2017-08-04T07:32:33.415Z,1260
2017-08-04T07:33:13.869Z,1328
2017-08-04T07:33:54.328Z,1756
2017-08-04T07:34:34.785Z,1960
2017-08-04T07:35:15.247Z,1620
2017-08-04T07:35:55.699Z,1304
2017-08-04T07:36:36.154Z,1916
2017-08-04T07:37:16.613Z,1604
2017-08-04T07:37:57.082Z,2216
2017-08-04T07:38:37.540Z,1856
2017-08-04T07:39:17.994Z,1468
2017-08-04T07:39:58.454Z,1176
2017-08-04T07:40:38.917Z,1176
2017-08-04T07:41:19.368Z,1408
2017-08-04T07:41:59.851Z,1376
2017-08-04T07:42:40.293Z,2408
2017-08-04T07:43:20.751Z,2272
2017-08-04T07:44:01.212Z,2152
2017-08-04T07:44:41.660Z,2464
2017-08-04T07:45:22.119Z,2596
2017-08-04T07:46:02.574Z,1760
2017-08-04T07:46:43.032Z,2228
2017-08-04T07:47:23.490Z,2648
2017-08-04T07:48:03.949Z,2684
2017-08-04T07:48:44.405Z,2216
2017-08-04T07:49:24.863Z,1412
2017-08-04T07:50:05.318Z,1476
2017-08-04T07:50:45.785Z,1264
2017-08-04T07:51:26.258Z,1164
2017-08-04T07:52:06.705Z,1156
2017-08-04T07:52:47.159Z,1148
2017-08-04T07:53:27.618Z,1152
2017-08-04T07:54:08.076Z,1160
2017-08-04T07:54:48.540Z,1172
2017-08-04T07:55:29.000Z,1292
2017-08-04T07:56:09.458Z,1192
2017-08-04T07:56:49.919Z,1476
2017-08-04T07:57:30.374Z,1056
2017-08-04T07:58:10.832Z,1004
2017-08-04T07:58:51.283Z,992
2017-08-04T07:59:31.734Z,1060
2017-08-04T08:00:12.189Z,1004
2017-08-04T08:00:52.643Z,1004
2017-08-04T08:01:33.122Z,1000
2017-08-04T08:02:13.565Z,984
2017-08-04T08:02:54.038Z,1004
2017-08-04T08:03:34.491Z,1056
2017-08-04T08:04:14.936Z,1120
2017-08-04T08:04:55.392Z,1180
2017-08-04T08:05:35.847Z,1200
2017-08-04T08:06:16.308Z,1192
2017-08-04T08:06:56.762Z,1196
2017-08-04T08:07:37.220Z,1188
2017-08-04T08:08:17.678Z,1140
2017-08-04T08:08:58.132Z,1096
2017-08-04T08:09:38.579Z,992
2017-08-04T08:10:19.036Z,960
2017-08-04T08:10:59.489Z,880
2017-08-04T08:11:39.946Z,852
2017-08-04T08:12:20.404Z,840
2017-08-04T08:13:00.861Z,824
2017-08-04T08:13:41.313Z,800
2017-08-04T08:14:21.770Z,776
2017-08-04T08:15:02.313Z,760
2017-08-04T08:15:42.777Z,756
2017-08-04T08:16:23.235Z,776
2017-08-04T08:17:03.690Z,792
2017-08-04T08:17:44.125Z,860
2017-08-04T08:18:24.580Z,932
2017-08-04T08:19:05.041Z,1356
2017-08-04T08:19:45.489Z,1104
2017-08-04T08:20:25.955Z,1356
2017-08-04T08:21:06.414Z,1296
2017-08-04T08:21:46.863Z,1060
2017-08-04T08:22:27.344Z,1028
2017-08-04T08:23:07.800Z,952
2017-08-04T08:23:48.532Z,956
2017-08-04T08:24:29.140Z,976
2017-08-04T08:25:09.596Z,1204
2017-08-04T08:25:50.065Z,1000
2017-08-04T08:26:30.519Z,1104
2017-08-04T08:27:10.966Z,1536
2017-08-04T08:27:51.423Z,1576
2017-08-04T08:28:31.876Z,1828
2017-08-04T08:29:12.324Z,1244
2017-08-04T08:29:52.788Z,1140
2017-08-04T08:30:33.242Z,1100
2017-08-04T08:31:13.971Z,1136
2017-08-04T08:33:11.733Z,1336
2017-08-04T08:33:52.175Z,1092
2017-08-04T08:34:32.627Z,1164
2017-08-04T08:35:13.086Z,1056
2017-08-04T08:35:53.569Z,1052
2017-08-04T08:36:34.015Z,1088
2017-08-04T08:37:14.478Z,1100
2017-08-04T08:37:54.932Z,1044
2017-08-04T08:38:35.391Z,1068
2017-08-04T08:39:15.851Z,980
2017-08-04T08:39:56.306Z,1016
2017-08-04T08:40:36.769Z,948
2017-08-04T08:41:17.235Z,948
2017-08-04T08:41:57.734Z,968
2017-08-04T08:42:38.135Z,1012
2017-08-04T08:43:18.610Z,1080
2017-08-04T08:43:59.075Z,1132
2017-08-04T08:44:39.525Z,1144
2017-08-04T08:45:19.978Z,1132
2017-08-04T08:46:00.436Z,1104
2017-08-04T08:46:40.886Z,1060
2017-08-04T08:47:21.336Z,1004
2017-08-04T08:48:01.793Z,952
2017-08-04T08:48:42.239Z,944
2017-08-04T08:49:22.719Z,932
2017-08-04T08:50:03.172Z,904
2017-08-04T08:50:43.631Z,888
2017-08-04T08:51:24.240Z,856
2017-08-04T08:52:04.694Z,844
2017-08-04T08:52:45.138Z,832
2017-08-04T08:53:25.596Z,816
2017-08-04T08:54:06.057Z,812
2017-08-04T08:54:46.505Z,820
2017-08-04T08:55:26.970Z,840
2017-08-04T08:56:07.425Z,852
2017-08-04T08:56:47.878Z,860
2017-08-04T08:57:28.338Z,864
2017-08-04T08:58:08.796Z,880
2017-08-04T08:58:49.253Z,920
2017-08-04T08:59:29.710Z,1000
2017-08-04T09:00:10.156Z,1112
2017-08-04T09:00:50.615Z,1212
2017-08-04T09:01:31.068Z,1264
2017-08-04T09:02:11.526Z,1232
2017-08-04T09:02:51.986Z,1184
2017-08-04T09:03:32.443Z,1092
2017-08-04T09:04:12.895Z,964
2017-08-04T09:04:53.358Z,880
2017-08-04T09:05:33.812Z,856
2017-08-04T09:06:14.465Z,872
2017-08-04T09:06:55.017Z,920
2017-08-04T09:07:35.401Z,996
2017-08-04T09:08:15.866Z,1100
2017-08-04T09:08:56.324Z,1132
2017-08-04T09:09:36.786Z,1148
2017-08-04T09:10:17.249Z,1212
2017-08-04T09:12:30.274Z,1072
2017-08-04T09:13:10.708Z,1008
2017-08-04T09:13:51.166Z,940
2017-08-04T09:14:31.623Z,924
2017-08-04T09:15:12.070Z,924
2017-08-04T09:15:52.515Z,928
2017-08-04T09:16:32.976Z,940
2017-08-04T09:17:13.434Z,948
2017-08-04T09:17:53.897Z,972
2017-08-04T09:18:34.369Z,1000
2017-08-04T09:19:14.817Z,1276
2017-08-04T09:21:12.518Z,1424
2017-08-04T09:21:52.970Z,2620
2017-08-04T09:22:33.480Z,3960
2017-08-04T09:23:13.861Z,1652
2017-08-04T09:23:54.301Z,1696
2017-08-04T09:24:34.753Z,1684
2017-08-04T09:25:15.231Z,2040
2017-08-04T09:25:55.665Z,2552
2017-08-04T09:26:36.119Z,2352
2017-08-04T09:27:16.577Z,2684
2017-08-04T09:27:57.023Z,2188
2017-08-04T09:28:37.476Z,1956
2017-08-04T09:29:17.925Z,1896
2017-08-04T09:29:58.380Z,1632
2017-08-04T09:30:38.927Z,1600
2017-08-04T09:31:19.386Z,1676
2017-08-04T09:31:59.988Z,1624
2017-08-04T09:32:40.294Z,1840
2017-08-04T09:33:20.741Z,1432
2017-08-04T09:34:01.207Z,1484
2017-08-04T09:34:41.735Z,1520
2017-08-04T09:35:22.104Z,1448
2017-08-04T09:36:02.554Z,1372
2017-08-04T09:36:43.018Z,1368
2017-08-04T09:37:23.469Z,1308
2017-08-04T09:38:03.922Z,1168